Time;durP1;ratioP1;P1;durP2;ratioP2;P2;SDS_P1;SDS_P2;PMS_P1;PMS_P2;Temp;Humidity;BMP_temperature;BMP_pressure;BME280_temperature;BME280_humidity;BME280_pressure;Samples;Min_cycle;Max_cycle;Signal;HPM_P1;HPM_P2
2021/06/05 00:00:33;;;;;;;59.10;27.00;;;19.50;99.90;;;;;;4996909;28;20452;-89
2021/06/05 00:03:00;;;;;;;52.40;24.97;;;19.70;99.90;;;;;;4991837;28;20446;-88
2021/06/05 00:05:30;;;;;;;67.53;26.10;;;19.60;99.90;;;;;;5010083;28;20513;-87
2021/06/05 00:07:57;;;;;;;52.87;25.40;;;19.50;99.90;;;;;;5015416;28;20480;-86
2021/06/05 00:10:28;;;;;;;54.47;23.50;;;19.80;99.90;;;;;;5007246;28;20528;-87
2021/06/05 00:12:57;;;;;;;63.10;23.80;;;19.50;99.90;;;;;;4983784;28;20460;-90
2021/06/05 00:15:27;;;;;;;57.77;23.30;;;19.60;99.90;;;;;;4997987;28;20447;-91
2021/06/05 00:17:54;;;;;;;50.03;23.33;;;21.00;99.90;;;;;;4992303;28;20884;-90
2021/06/05 00:23:30;;;;;;;49.57;23.40;;;20.80;99.90;;;;;;4982688;28;20433;-90
2021/06/05 00:26:02;;;;;;;47.63;22.67;;;19.70;99.90;;;;;;4978724;28;20552;-89
2021/06/05 00:28:35;;;;;;;51.60;24.13;;;19.60;99.90;;;;;;4994619;28;20466;-87
2021/06/05 00:31:07;;;;;;;58.03;26.00;;;19.70;99.90;;;;;;5006701;28;20928;-89
2021/06/05 00:33:42;;;;;;;48.97;24.40;;;19.70;99.90;;;;;;4999789;28;20745;-90
2021/06/05 00:36:17;;;;;;;44.87;23.30;;;20.40;99.90;;;;;;5006325;28;20785;-89
2021/06/05 00:38:45;;;;;;;47.67;23.50;;;21.00;99.90;;;;;;4981728;28;20996;-86
2021/06/05 00:41:16;;;;;;;55.90;25.73;;;19.50;99.90;;;;;;5003210;28;20475;-85
2021/06/05 00:43:47;;;;;;;51.87;25.87;;;19.40;99.90;;;;;;5012963;28;20818;-85
2021/06/05 00:46:21;;;;;;;55.33;23.47;;;20.60;99.90;;;;;;4988928;28;20501;-92
2021/06/05 00:48:47;;;;;;;47.90;24.87;;;19.50;99.90;;;;;;4998077;28;20783;-90
2021/06/05 00:51:14;;;;;;;54.57;23.40;;;20.40;99.90;;;;;;4998535;28;20460;-89
2021/06/05 00:53:41;;;;;;;52.53;23.60;;;20.20;99.90;;;;;;5014210;28;20995;-88
2021/06/05 00:56:11;;;;;;;47.17;22.97;;;19.60;99.90;;;;;;4996664;28;20607;-89
2021/06/05 00:58:40;;;;;;;52.33;23.97;;;19.50;99.90;;;;;;5009737;28;20439;-87
2021/06/05 01:01:12;;;;;;;50.63;23.97;;;19.30;99.90;;;;;;5010862;28;20484;-90
2021/06/05 01:03:42;;;;;;;47.17;24.23;;;20.60;99.90;;;;;;4981656;28;20506;-89
2021/06/05 01:06:18;;;;;;;48.90;23.70;;;20.20;99.90;;;;;;5007855;28;20462;-91
2021/06/05 01:08:53;;;;;;;49.73;23.20;;;20.30;99.90;;;;;;5013267;28;20518;-89
2021/06/05 01:11:25;;;;;;;47.37;20.40;;;19.50;99.90;;;;;;5000533;28;21335;-90
2021/06/05 01:14:00;;;;;;;52.53;22.40;;;19.20;99.90;;;;;;5010328;28;20414;-87
2021/06/05 01:16:30;;;;;;;45.57;23.10;;;20.40;99.90;;;;;;5012028;28;20472;-87
2021/06/05 01:19:00;;;;;;;55.53;23.10;;;19.30;99.90;;;;;;4981209;28;20423;-86
2021/06/05 01:21:48;;;;;;;57.60;23.30;;;19.50;99.90;;;;;;4994798;28;20484;-88
2021/06/05 01:24:27;;;;;;;39.03;21.23;;;19.70;99.90;;;;;;5006514;28;20836;-90
2021/06/05 01:26:58;;;;;;;37.73;19.97;;;20.50;99.90;;;;;;5002363;28;20463;-91
2021/06/05 01:29:29;;;;;;;38.50;19.50;;;19.40;99.90;;;;;;5009731;28;20451;-89
2021/06/05 01:31:59;;;;;;;36.47;18.93;;;20.30;99.90;;;;;;4993406;28;20998;-88
2021/06/05 01:34:31;;;;;;;37.67;19.73;;;20.40;99.90;;;;;;5012011;28;20456;-89
2021/06/05 01:36:58;;;;;;;38.93;19.90;;;19.90;99.90;;;;;;5005829;28;20957;-91
2021/06/05 01:39:29;;;;;;;45.93;20.83;;;19.40;99.90;;;;;;4995865;28;20462;-87
2021/06/05 01:42:01;;;;;;;32.23;19.83;;;19.00;99.90;;;;;;5007353;28;20470;-86
2021/06/05 01:44:48;;;;;;;41.07;20.50;;;19.80;99.90;;;;;;5011358;28;21012;-87
2021/06/05 01:47:15;;;;;;;44.80;22.27;;;19.10;99.90;;;;;;4959945;28;20467;-89
2021/06/05 01:52:20;;;;;;;32.57;19.67;;;19.30;99.90;;;;;;4968262;28;20424;-90
2021/06/05 01:54:53;;;;;;;39.57;21.07;;;19.20;99.90;;;;;;4961608;28;20650;-89
2021/06/05 01:57:26;;;;;;;35.40;20.03;;;20.30;99.90;;;;;;4966559;28;20507;-88
2021/06/05 01:59:54;;;;;;;42.27;21.20;;;19.10;99.90;;;;;;4930474;28;20823;-86
2021/06/05 02:02:21;;;;;;;37.83;19.70;;;18.80;99.90;;;;;;4953864;28;20508;-87
2021/06/05 02:04:50;;;;;;;44.30;23.00;;;19.10;99.90;;;;;;4981251;28;20841;-90
2021/06/05 02:07:17;;;;;;;43.63;19.20;;;18.90;99.90;;;;;;5000953;28;20518;-91
2021/06/05 02:09:44;;;;;;;49.30;21.60;;;19.90;99.90;;;;;;5009032;28;20411;-87
2021/06/05 02:12:16;;;;;;;45.03;22.83;;;20.00;99.90;;;;;;5007936;28;20407;-85
2021/06/05 02:14:50;;;;;;;39.80;21.50;;;19.50;99.90;;;;;;5003162;28;20969;-89
2021/06/05 02:17:19;;;;;;;42.00;19.90;;;18.80;99.90;;;;;;5011928;28;20478;-89
2021/06/05 02:19:53;;;;;;;37.57;20.77;;;19.90;99.90;;;;;;5006202;28;20471;-86
2021/06/05 02:22:25;;;;;;;43.07;21.57;;;18.70;99.90;;;;;;4996572;28;20595;-90
2021/06/05 02:24:56;;;;;;;39.73;21.30;;;19.40;99.90;;;;;;4977816;28;20419;-86
2021/06/05 02:27:26;;;;;;;41.23;20.40;;;20.00;99.90;;;;;;4978511;28;20842;-87
2021/06/05 02:30:00;;;;;;;40.30;20.80;;;19.40;99.90;;;;;;5005664;28;20433;-86
2021/06/05 02:32:30;;;;;;;32.87;19.30;;;18.90;99.90;;;;;;4990439;28;20439;-88
2021/06/05 02:34:58;;;;;;;42.50;21.43;;;18.70;99.90;;;;;;4985232;28;20433;-90
2021/06/05 02:37:28;;;;;;;43.60;21.00;;;20.20;99.90;;;;;;4992622;28;20822;-89
2021/06/05 02:40:01;;;;;;;36.77;18.30;;;18.60;99.90;;;;;;4994547;28;20501;-91
2021/06/05 02:42:28;;;;;;;41.73;20.87;;;19.10;99.90;;;;;;5002198;28;20944;-89
2021/06/05 02:44:58;;;;;;;44.93;22.33;;;19.90;99.90;;;;;;5013131;28;20488;-91
2021/06/05 02:47:29;;;;;;;40.97;22.30;;;19.20;99.90;;;;;;4996422;28;20491;-85
2021/06/05 02:50:00;;;;;;;48.77;20.37;;;19.90;99.90;;;;;;5004969;28;20463;-89
2021/06/05 02:52:31;;;;;;;42.23;20.67;;;18.60;99.90;;;;;;4995405;28;20481;-89
2021/06/05 02:55:00;;;;;;;41.77;22.17;;;18.60;99.90;;;;;;5005527;28;20465;-91
2021/06/05 02:57:27;;;;;;;48.60;22.13;;;18.90;99.90;;;;;;4979247;28;20553;-87
2021/06/05 02:59:54;;;;;;;50.90;22.90;;;19.60;99.90;;;;;;5011246;28;20444;-87
2021/06/05 03:02:21;;;;;;;49.63;23.47;;;19.50;99.90;;;;;;5006716;28;20487;-86
2021/06/05 03:04:48;;;;;;;45.70;21.90;;;19.60;99.90;;;;;;4991025;28;20761;-87
2021/06/05 03:07:15;;;;;;;45.43;21.73;;;18.70;99.90;;;;;;5006069;28;20521;-89
2021/06/05 03:09:42;;;;;;;48.20;21.50;;;19.60;99.90;;;;;;5005911;28;20422;-88
2021/06/05 03:12:12;;;;;;;43.27;20.97;;;19.70;99.90;;;;;;5010623;28;20744;-88
2021/06/05 03:14:39;;;;;;;54.30;23.13;;;19.80;99.90;;;;;;4983651;28;20535;-91
2021/06/05 03:17:07;;;;;;;45.53;22.90;;;19.70;99.90;;;;;;4997240;28;20481;-88
2021/06/05 03:19:35;;;;;;;52.87;23.13;;;19.70;99.90;;;;;;4995209;28;20471;-89
2021/06/05 03:22:01;;;;;;;44.70;22.47;;;18.60;99.90;;;;;;5013419;28;20468;-85
2021/06/05 03:24:29;;;;;;;48.17;21.87;;;18.70;99.90;;;;;;5010632;28;20431;-88
2021/06/05 03:26:56;;;;;;;48.03;23.37;;;18.70;99.90;;;;;;5008690;28;20483;-89
2021/06/05 03:29:25;;;;;;;50.17;23.27;;;19.20;99.90;;;;;;5009067;28;20429;-90
2021/06/05 03:31:55;;;;;;;51.90;23.30;;;18.50;99.90;;;;;;5001623;28;20440;-87
2021/06/05 03:34:23;;;;;;;40.80;20.90;;;19.70;99.90;;;;;;4995452;28;20513;-88
2021/06/05 03:36:53;;;;;;;60.40;23.40;;;19.60;99.90;;;;;;4997334;28;21006;-88
2021/06/05 03:39:22;;;;;;;46.07;21.97;;;19.70;99.90;;;;;;5008775;28;20438;-90
2021/06/05 03:41:49;;;;;;;37.90;21.30;;;18.70;99.90;;;;;;5013582;28;20472;-90
2021/06/05 03:44:16;;;;;;;46.27;23.00;;;19.50;99.90;;;;;;5005162;28;20435;-90
2021/06/05 03:46:43;;;;;;;48.37;23.97;;;18.60;99.90;;;;;;5006565;28;20792;-89
2021/06/05 03:49:10;;;;;;;47.17;25.20;;;19.70;99.90;;;;;;5013796;28;20444;-87
2021/06/05 03:51:36;;;;;;;42.00;21.83;;;18.90;99.90;;;;;;5009561;28;20428;-85
2021/06/05 03:54:05;;;;;;;43.87;22.03;;;19.80;99.90;;;;;;4995903;28;20433;-86
2021/06/05 03:56:32;;;;;;;39.77;22.97;;;19.70;99.90;;;;;;4990550;28;20450;-88
2021/06/05 03:58:59;;;;;;;47.40;23.00;;;19.80;99.90;;;;;;4977226;28;20491;-85
2021/06/05 04:01:28;;;;;;;48.73;22.50;;;18.70;99.90;;;;;;4997714;28;20468;-90
2021/06/05 04:03:57;;;;;;;54.60;24.67;;;19.10;99.90;;;;;;4982739;28;20795;-92
2021/06/05 04:06:25;;;;;;;49.07;23.80;;;18.80;99.90;;;;;;5011872;28;20776;-87
2021/06/05 04:08:55;;;;;;;46.67;22.17;;;18.90;99.90;;;;;;4993373;28;20794;-92
2021/06/05 04:11:40;;;;;;;52.20;21.80;;;18.60;99.90;;;;;;4986773;28;20445;-87
2021/06/05 04:14:09;;;;;;;50.40;22.13;;;18.90;99.90;;;;;;5012487;28;20447;-92
2021/06/05 04:16:36;;;;;;;57.10;25.17;;;18.80;99.90;;;;;;5008475;28;20511;-91
2021/06/05 04:19:03;;;;;;;50.03;25.00;;;18.60;99.90;;;;;;5009406;28;20888;-88
2021/06/05 04:21:30;;;;;;;49.40;23.87;;;18.70;99.90;;;;;;5009650;28;20439;-89
2021/06/05 04:23:57;;;;;;;52.47;22.70;;;18.80;99.90;;;;;;5003262;28;20455;-84
2021/06/05 04:26:24;;;;;;;52.70;24.50;;;19.70;99.90;;;;;;5010282;28;20454;-88
2021/06/05 04:28:52;;;;;;;46.43;23.30;;;19.80;99.90;;;;;;4996576;28;20435;-88
2021/06/05 04:31:20;;;;;;;49.60;24.37;;;19.70;99.90;;;;;;5013334;28;20449;-91
2021/06/05 04:33:48;;;;;;;41.57;20.33;;;18.60;99.90;;;;;;4993886;28;20482;-87
2021/06/05 04:36:16;;;;;;;47.43;22.57;;;19.60;99.90;;;;;;5015958;28;20442;-88
2021/06/05 04:38:44;;;;;;;47.47;23.70;;;19.90;99.90;;;;;;4983739;28;20935;-90
2021/06/05 04:41:13;;;;;;;49.67;22.40;;;19.90;99.90;;;;;;5015169;28;20862;-91
2021/06/05 04:43:40;;;;;;;54.80;24.27;;;18.60;99.90;;;;;;4991582;28;20444;-89
2021/06/05 04:46:10;;;;;;;51.97;23.63;;;19.80;99.90;;;;;;4985939;28;20552;-89
2021/06/05 04:48:40;;;;;;;45.67;21.07;;;18.90;99.90;;;;;;4996332;28;20959;-87
2021/06/05 04:51:14;;;;;;;40.60;20.20;;;18.90;99.90;;;;;;5007928;28;20542;-88
2021/06/05 04:53:41;;;;;;;53.50;22.47;;;19.20;99.90;;;;;;5011334;28;20923;-88
2021/06/05 04:56:12;;;;;;;44.40;24.13;;;18.80;99.90;;;;;;5013854;28;20511;-87
2021/06/05 04:59:42;;;;;;;;;;;;;;;;;;;;;
2021/06/05 05:05:01;;;;;;;34.17;19.50;;;20.00;99.90;;;;;;4993364;28;20478;-88
2021/06/05 05:07:28;;;;;;;38.53;19.60;;;19.00;99.90;;;;;;5007573;28;20423;-88
2021/06/05 05:09:54;;;;;;;41.50;21.20;;;20.00;99.90;;;;;;5010333;28;20468;-84
2021/06/05 05:12:21;;;;;;;35.40;20.67;;;18.90;99.90;;;;;;4997490;28;20436;-84
2021/06/05 05:14:47;;;;;;;33.73;20.67;;;19.70;99.90;;;;;;4996680;28;20460;-85
2021/06/05 05:17:15;;;;;;;37.10;20.83;;;18.90;99.90;;;;;;5008114;28;20464;-85
2021/06/05 05:19:45;;;;;;;35.93;19.97;;;18.90;99.90;;;;;;5012419;28;20420;-85
2021/06/05 05:22:14;;;;;;;31.03;19.40;;;19.30;99.90;;;;;;5001145;28;20503;-87
2021/06/05 05:24:41;;;;;;;33.30;19.03;;;19.00;99.90;;;;;;5004339;28;20469;-87
2021/06/05 05:27:10;;;;;;;33.63;18.20;;;20.30;99.90;;;;;;5012017;28;20497;-85
2021/06/05 05:29:36;;;;;;;36.53;18.70;;;19.00;99.90;;;;;;4981041;28;20439;-87
2021/06/05 05:32:04;;;;;;;30.83;19.37;;;19.00;99.90;;;;;;4993115;28;20509;-88
2021/06/05 05:34:33;;;;;;;40.33;19.40;;;20.20;99.90;;;;;;5001380;28;20506;-84
2021/06/05 05:37:02;;;;;;;32.40;17.73;;;19.70;99.90;;;;;;4995479;28;20463;-86
2021/06/05 05:39:29;;;;;;;33.23;19.17;;;20.00;99.90;;;;;;5010296;28;20484;-88
2021/06/05 05:41:56;;;;;;;41.77;21.33;;;19.00;99.90;;;;;;5007405;28;20509;-84
2021/06/05 05:44:22;;;;;;;41.80;19.70;;;19.10;99.90;;;;;;4997910;28;20457;-86
2021/06/05 05:46:58;;;;;;;44.60;20.20;;;19.00;99.90;;;;;;5011661;28;20455;-84
2021/06/05 05:49:28;;;;;;;48.80;21.43;;;20.40;99.90;;;;;;5002521;28;20939;-88
2021/06/05 05:51:57;;;;;;;47.47;21.93;;;19.20;99.90;;;;;;4994987;28;20504;-88
2021/06/05 05:54:24;;;;;;;43.17;20.27;;;19.20;99.90;;;;;;4995340;28;20534;-88
2021/06/05 05:56:51;;;;;;;38.67;19.90;;;19.20;99.90;;;;;;4994957;28;20446;-85
2021/06/05 05:59:20;;;;;;;36.60;20.90;;;19.20;99.90;;;;;;5006745;28;20911;-87
2021/06/05 06:01:47;;;;;;;37.13;21.20;;;19.80;99.90;;;;;;5011211;28;20524;-85
2021/06/05 06:04:14;;;;;;;41.93;21.37;;;20.30;99.90;;;;;;4984528;28;20552;-86
2021/06/05 06:06:41;;;;;;;43.53;19.93;;;20.40;99.90;;;;;;4994759;28;20519;-88
2021/06/05 06:09:09;;;;;;;40.57;20.60;;;19.40;99.90;;;;;;4964601;28;20952;-85
2021/06/05 06:11:36;;;;;;;43.20;21.43;;;20.40;99.90;;;;;;5013143;28;20533;-87
2021/06/05 06:14:02;;;;;;;36.90;19.63;;;20.40;99.90;;;;;;5000760;28;20815;-88
2021/06/05 06:16:31;;;;;;;37.57;20.83;;;19.90;99.90;;;;;;5011736;28;20464;-84
2021/06/05 06:18:58;;;;;;;44.60;22.37;;;19.40;99.90;;;;;;5008685;28;20492;-85
2021/06/05 06:21:27;;;;;;;39.77;20.50;;;20.40;99.90;;;;;;5005256;28;20481;-87
2021/06/05 06:23:53;;;;;;;37.97;20.67;;;20.60;99.90;;;;;;5011234;28;20450;-85
2021/06/05 06:26:26;;;;;;;41.50;21.73;;;20.50;99.90;;;;;;5006233;28;20481;-89
2021/06/05 06:28:53;;;;;;;42.00;20.80;;;19.40;99.90;;;;;;4975032;28;20485;-83
2021/06/05 06:31:21;;;;;;;45.43;22.67;;;20.60;99.90;;;;;;4989148;28;20807;-88
2021/06/05 06:33:48;;;;;;;38.40;20.53;;;19.50;99.90;;;;;;5006001;28;20455;-88
2021/06/05 06:36:16;;;;;;;38.90;20.87;;;20.60;99.90;;;;;;5005333;28;20510;-84
2021/06/05 06:38:45;;;;;;;41.73;21.50;;;19.70;99.90;;;;;;5011739;28;20420;-82
2021/06/05 06:41:14;;;;;;;39.10;21.40;;;20.50;99.90;;;;;;4984623;28;20469;-85
2021/06/05 06:43:42;;;;;;;37.40;21.83;;;20.10;99.90;;;;;;4976727;28;20499;-84
2021/06/05 06:46:17;;;;;;;35.57;21.17;;;19.60;99.90;;;;;;4997461;28;20488;-85
2021/06/05 06:48:44;;;;;;;33.07;20.40;;;20.50;99.90;;;;;;4985798;28;20781;-87
2021/06/05 06:51:11;;;;;;;36.90;21.53;;;19.50;99.90;;;;;;4996442;28;20450;-86
2021/06/05 06:53:37;;;;;;;42.10;22.60;;;20.30;99.90;;;;;;5013889;28;20424;-85
2021/06/05 06:56:05;;;;;;;47.57;24.10;;;19.90;99.90;;;;;;5005345;28;20484;-84
2021/06/05 06:58:32;;;;;;;46.20;24.33;;;20.20;99.90;;;;;;5012239;28;20453;-83
2021/06/05 07:01:00;;;;;;;46.37;24.83;;;20.50;99.90;;;;;;5015620;28;20441;-79
2021/06/05 07:03:26;;;;;;;55.30;26.37;;;20.50;99.90;;;;;;5001159;28;20592;-89
2021/06/05 07:05:56;;;;;;;78.47;32.53;;;19.80;99.90;;;;;;5016029;28;20456;-86
2021/06/05 07:08:25;;;;;;;72.37;31.97;;;20.60;99.90;;;;;;5014620;28;20429;-86
2021/06/05 07:10:54;;;;;;;71.70;32.43;;;20.10;99.90;;;;;;4999008;28;20866;-86
2021/06/05 07:13:21;;;;;;;42.10;25.13;;;20.90;99.90;;;;;;5000114;28;20963;-84
2021/06/05 07:15:48;;;;;;;40.47;24.07;;;21.10;99.90;;;;;;5009779;28;20482;-82
2021/06/05 07:18:18;;;;;;;36.80;25.00;;;20.40;99.90;;;;;;5010928;28;20476;-87
2021/06/05 07:20:49;;;;;;;31.60;21.07;;;21.50;99.90;;;;;;5010486;28;20470;-83
2021/06/05 07:23:17;;;;;;;33.77;21.10;;;21.20;99.90;;;;;;4981584;28;20487;-86
2021/06/05 07:25:44;;;;;;;38.73;25.33;;;21.70;99.90;;;;;;4990150;28;20455;-88
2021/06/05 07:28:19;;;;;;;39.07;26.50;;;20.70;99.90;;;;;;5009282;28;20459;-85
2021/06/05 07:30:46;;;;;;;44.20;25.30;;;20.80;99.90;;;;;;5011824;28;20493;-84
2021/06/05 07:33:16;;;;;;;39.30;24.17;;;21.00;99.90;;;;;;4995533;28;20443;-85
2021/06/05 07:35:44;;;;;;;37.17;23.83;;;21.80;99.90;;;;;;5002999;28;20489;-88
2021/06/05 07:38:13;;;;;;;32.07;22.87;;;20.90;99.90;;;;;;5013143;28;20512;-86
2021/06/05 07:40:41;;;;;;;40.37;24.47;;;22.00;99.90;;;;;;4996416;28;20443;-85
2021/06/05 07:43:07;;;;;;;38.57;24.03;;;21.20;99.90;;;;;;5002923;28;20493;-85
2021/06/05 07:45:34;;;;;;;35.57;23.23;;;21.20;99.90;;;;;;5005541;28;20484;-87
2021/06/05 07:48:01;;;;;;;34.03;23.57;;;21.10;99.90;;;;;;5010256;28;20464;-87
2021/06/05 07:50:28;;;;;;;33.63;22.93;;;22.00;99.90;;;;;;5002810;28;20549;-87
2021/06/05 07:52:56;;;;;;;32.70;22.20;;;21.20;99.90;;;;;;5010580;28;20474;-85
2021/06/05 07:55:23;;;;;;;37.27;22.47;;;22.00;99.90;;;;;;5013156;28;20536;-84
2021/06/05 07:57:49;;;;;;;35.57;21.93;;;21.30;99.90;;;;;;5004058;28;20455;-81
2021/06/05 08:00:18;;;;;;;34.40;23.17;;;22.00;99.90;;;;;;5007337;28;20486;-87
2021/06/05 08:02:45;;;;;;;31.43;22.23;;;21.20;99.90;;;;;;4992636;28;20532;-86
2021/06/05 08:05:14;;;;;;;34.63;22.63;;;21.20;99.90;;;;;;5008056;28;20692;-89
2021/06/05 08:07:45;;;;;;;37.03;23.20;;;21.20;99.90;;;;;;5014062;28;20526;-90
2021/06/05 08:10:14;;;;;;;31.80;23.00;;;21.50;99.90;;;;;;5010543;28;20501;-85
2021/06/05 08:12:41;;;;;;;31.67;22.50;;;22.00;99.90;;;;;;4983173;28;20451;-91
2021/06/05 08:15:13;;;;;;;31.87;22.00;;;21.20;99.90;;;;;;4996809;28;20811;-85
2021/06/05 08:17:40;;;;;;;29.93;20.20;;;21.90;99.90;;;;;;5014886;28;20485;-83
2021/06/05 08:20:10;;;;;;;29.07;21.07;;;22.10;99.90;;;;;;5001608;28;20495;-87
2021/06/05 08:22:36;;;;;;;33.63;21.30;;;22.10;99.90;;;;;;4989204;28;20486;-85
2021/06/05 08:25:05;;;;;;;27.07;19.90;;;21.50;99.90;;;;;;5010278;28;20466;-85
2021/06/05 08:27:34;;;;;;;35.50;20.13;;;22.00;99.90;;;;;;4977445;28;20872;-87
2021/06/05 08:30:01;;;;;;;26.80;18.47;;;22.10;99.90;;;;;;5007739;28;21037;-87
2021/06/05 08:32:28;;;;;;;27.37;19.77;;;22.10;99.90;;;;;;5005067;28;20547;-84
2021/06/05 08:34:54;;;;;;;28.27;20.27;;;21.70;99.90;;;;;;5024615;28;20445;-86
2021/06/05 08:37:21;;;;;;;27.33;19.90;;;22.20;99.90;;;;;;5013752;28;20494;-85
2021/06/05 08:39:49;;;;;;;28.13;19.13;;;21.40;99.90;;;;;;5007565;28;20447;-82
2021/06/05 08:42:21;;;;;;;29.73;20.97;;;21.90;99.90;;;;;;5005256;28;20498;-89
2021/06/05 08:44:51;;;;;;;31.93;22.10;;;22.20;99.90;;;;;;4999193;28;20927;-88
2021/06/05 08:47:22;;;;;;;38.07;21.67;;;21.70;99.90;;;;;;5007478;28;20482;-85
2021/06/05 08:49:49;;;;;;;27.80;19.43;;;22.20;99.90;;;;;;4968888;28;20463;-86
2021/06/05 08:52:29;;;;;;;32.97;21.00;;;22.30;99.90;;;;;;4998189;28;20454;-86
2021/06/05 08:55:00;;;;;;;33.00;21.80;;;22.20;99.90;;;;;;5001204;28;20446;-87
2021/06/05 08:57:32;;;;;;;31.30;21.73;;;21.50;99.90;;;;;;4996125;28;20497;-85
2021/06/05 09:00:09;;;;;;;33.53;23.00;;;21.60;99.90;;;;;;5009586;28;20467;-84
2021/06/05 09:02:37;;;;;;;28.20;21.00;;;22.40;99.90;;;;;;4986578;28;21076;-86
2021/06/05 09:05:07;;;;;;;29.20;20.63;;;22.20;99.90;;;;;;4975752;28;20458;-87
2021/06/05 09:07:33;;;;;;;32.70;21.77;;;21.60;99.90;;;;;;4978581;28;20463;-84
2021/06/05 09:10:01;;;;;;;31.67;19.73;;;21.90;99.90;;;;;;5011108;28;20947;-85
2021/06/05 09:12:27;;;;;;;33.47;22.37;;;21.70;99.90;;;;;;5012304;28;20443;-85
2021/06/05 09:14:59;;;;;;;31.60;23.57;;;21.70;99.90;;;;;;5004625;28;20465;-86
2021/06/05 09:17:37;;;;;;;34.70;23.27;;;21.60;99.90;;;;;;5004917;28;21949;-86
2021/06/05 09:20:10;;;;;;;41.07;25.93;;;22.30;99.90;;;;;;5011999;28;20579;-83
2021/06/05 09:22:40;;;;;;;40.87;26.77;;;22.20;99.90;;;;;;4997597;28;20575;-87
2021/06/05 09:25:25;;;;;;;40.40;24.60;;;22.20;99.90;;;;;;4987776;28;20861;-86
2021/06/05 09:27:52;;;;;;;36.93;24.83;;;22.10;99.90;;;;;;4998415;28;20466;-86
2021/06/05 09:30:34;;;;;;;39.27;25.20;;;22.10;99.90;;;;;;5004138;28;20509;-82
2021/06/05 09:33:02;;;;;;;39.63;27.70;;;21.50;99.90;;;;;;4998786;28;20490;-83
2021/06/05 09:35:31;;;;;;;40.60;27.87;;;21.50;99.90;;;;;;4987692;28;20481;-82
2021/06/05 09:38:16;;;;;;;46.07;26.50;;;21.80;99.90;;;;;;4986019;28;20462;-86
2021/06/05 09:41:00;;;;;;;38.93;25.20;;;22.00;99.90;;;;;;4994896;28;20541;-87
2021/06/05 09:43:27;;;;;;;52.00;31.27;;;21.60;99.90;;;;;;5011437;28;20474;-87
2021/06/05 09:46:12;;;;;;;52.83;30.57;;;21.40;99.90;;;;;;4977798;28;20578;-84
2021/06/05 09:48:41;;;;;;;48.43;31.33;;;21.30;99.90;;;;;;4993357;28;20473;-88
2021/06/05 09:51:26;;;;;;;42.13;28.43;;;22.10;99.90;;;;;;5012164;28;20920;-85
2021/06/05 09:53:59;;;;;;;49.40;29.47;;;22.10;99.90;;;;;;4989947;28;20502;-84
2021/06/05 09:56:29;;;;;;;50.10;31.03;;;21.70;99.90;;;;;;4975413;28;20468;-88
2021/06/05 09:59:07;;;;;;;53.70;31.90;;;21.30;99.90;;;;;;5008484;28;20421;-87
2021/06/05 10:01:37;;;;;;;43.97;27.57;;;21.40;99.90;;;;;;4989814;28;20435;-83
2021/06/05 10:04:15;;;;;;;51.87;30.20;;;21.30;99.90;;;;;;4991650;28;20444;-82
2021/06/05 10:06:44;;;;;;;48.37;30.73;;;21.90;99.90;;;;;;4983506;28;20467;-88
2021/06/05 10:09:31;;;;;;;49.10;30.50;;;21.80;99.90;;;;;;5011997;28;20543;-85
2021/06/05 10:12:00;;;;;;;52.13;30.83;;;21.90;99.90;;;;;;5009330;28;20459;-83
2021/06/05 10:14:49;;;;;;;47.70;30.40;;;21.90;99.90;;;;;;4990472;28;20939;-84
2021/06/05 10:17:22;;;;;;;50.60;31.60;;;22.10;99.90;;;;;;5005092;28;20463;-84
2021/06/05 10:19:58;;;;;;;58.70;33.73;;;22.00;99.90;;;;;;4974325;28;20539;-85
2021/06/05 10:22:26;;;;;;;54.60;32.63;;;22.00;99.90;;;;;;4992161;28;20487;-84
2021/06/05 10:25:01;;;;;;;47.57;30.83;;;21.30;99.90;;;;;;4979109;28;20817;-84
2021/06/05 10:27:34;;;;;;;55.03;30.50;;;22.00;99.90;;;;;;4985256;28;20473;-91
2021/06/05 10:30:06;;;;;;;49.30;30.10;;;21.30;99.90;;;;;;5011251;28;20970;-87
2021/06/05 10:32:39;;;;;;;46.90;30.43;;;21.50;99.90;;;;;;4994285;28;20545;-84
2021/06/05 10:35:12;;;;;;;52.73;33.20;;;21.30;99.90;;;;;;4977247;28;20804;-87
2021/06/05 10:37:41;;;;;;;44.97;28.80;;;22.00;99.90;;;;;;4987664;28;20553;-88
2021/06/05 10:40:15;;;;;;;49.60;31.80;;;21.30;99.90;;;;;;5009088;28;20538;-87
2021/06/05 10:42:45;;;;;;;52.60;30.40;;;21.90;99.90;;;;;;4985301;28;20496;-85
2021/06/05 10:45:15;;;;;;;52.70;30.23;;;21.40;99.90;;;;;;5011447;28;20811;-86
2021/06/05 10:47:51;;;;;;;62.80;32.30;;;21.30;99.90;;;;;;5008783;28;20459;-87
2021/06/05 10:50:23;;;;;;;55.90;30.67;;;21.40;99.90;;;;;;5011338;28;20531;-90
2021/06/05 10:52:54;;;;;;;63.20;32.33;;;22.00;99.90;;;;;;4996215;28;20446;-87
2021/06/05 10:55:27;;;;;;;67.03;35.40;;;21.70;99.90;;;;;;5006533;28;20865;-88
2021/06/05 10:58:24;;;;;;;60.63;33.53;;;21.60;99.90;;;;;;4996363;28;20551;-87
2021/06/05 11:00:53;;;;;;;65.83;32.70;;;22.10;99.90;;;;;;4978567;28;20461;-84
2021/06/05 11:03:57;;;;;;;58.07;33.30;;;21.60;99.90;;;;;;4975483;28;20482;-89
2021/06/05 11:06:28;;;;;;;63.20;34.33;;;21.80;99.90;;;;;;5002141;28;20466;-86
2021/06/05 11:08:59;;;;;;;49.00;31.37;;;21.80;99.90;;;;;;4962667;28;20494;-88
2021/06/05 11:11:42;;;;;;;54.10;32.97;;;21.90;99.90;;;;;;4996775;28;20999;-90
2021/06/05 11:14:38;;;;;;;50.93;31.90;;;22.50;99.90;;;;;;4999287;28;21192;-86
2021/06/05 11:17:21;;;;;;;47.27;31.20;;;21.80;99.90;;;;;;4982702;28;20851;-86
2021/06/05 11:19:53;;;;;;;47.33;29.57;;;22.50;99.90;;;;;;4990881;28;20440;-84
2021/06/05 11:22:21;;;;;;;46.60;28.97;;;22.40;99.90;;;;;;4979520;28;21066;-87
2021/06/05 11:25:17;;;;;;;46.70;30.80;;;22.50;99.90;;;;;;4990491;28;20452;-86
2021/06/05 11:27:47;;;;;;;41.63;27.83;;;22.20;99.90;;;;;;4977810;28;20471;-86
2021/06/05 11:30:37;;;;;;;38.87;29.57;;;22.20;99.90;;;;;;4975733;28;20463;-90
2021/06/05 11:33:06;;;;;;;45.17;30.97;;;22.10;99.90;;;;;;4989905;28;20499;-86
2021/06/05 11:35:46;;;;;;;42.83;29.83;;;22.70;99.90;;;;;;4991589;28;20816;-90
2021/06/05 11:38:45;;;;;;;51.93;33.70;;;22.20;99.90;;;;;;4972912;28;20972;-86
2021/06/05 11:41:42;;;;;;;48.67;31.50;;;22.90;99.90;;;;;;4976127;28;20472;-86
2021/06/05 11:44:24;;;;;;;42.30;31.17;;;22.80;99.90;;;;;;4993941;28;20447;-83
2021/06/05 11:46:54;;;;;;;40.60;31.87;;;22.90;99.90;;;;;;4992111;28;20481;-83
2021/06/05 11:49:51;;;;;;;44.57;31.10;;;22.90;99.90;;;;;;4980570;28;20467;-86
2021/06/05 11:52:35;;;;;;;42.20;30.70;;;22.80;99.90;;;;;;4993010;28;20839;-85
2021/06/05 11:55:23;;;;;;;40.23;30.67;;;22.70;99.90;;;;;;4996196;28;20550;-87
2021/06/05 11:58:08;;;;;;;43.73;32.17;;;23.00;99.90;;;;;;4990211;28;20882;-87
2021/06/05 12:00:38;;;;;;;44.20;32.90;;;22.30;99.90;;;;;;4969131;28;20459;-84
2021/06/05 12:03:08;;;;;;;56.40;41.70;;;23.00;99.90;;;;;;4988921;28;20491;-86
2021/06/05 12:05:40;;;;;;;51.87;37.80;;;22.30;99.90;;;;;;4982191;28;20544;-84
2021/06/05 12:08:22;;;;;;;59.90;39.87;;;22.70;99.90;;;;;;4993391;28;20462;-84
2021/06/05 12:10:50;;;;;;;52.77;37.77;;;22.80;99.90;;;;;;4998298;28;20444;-87
2021/06/05 12:13:26;;;;;;;51.37;37.53;;;22.80;99.90;;;;;;4981784;28;20466;-84
2021/06/05 12:15:55;;;;;;;58.70;38.97;;;22.30;99.90;;;;;;4982607;28;20831;-83
2021/06/05 12:18:24;;;;;;;74.03;44.40;;;22.70;99.90;;;;;;5004375;28;20501;-85
2021/06/05 12:20:58;;;;;;;70.70;48.07;;;22.20;99.90;;;;;;5012381;28;20851;-83
2021/06/05 12:23:28;;;;;;;63.90;45.90;;;22.50;99.90;;;;;;4995110;28;20497;-87
2021/06/05 12:26:02;;;;;;;71.67;47.03;;;22.50;99.90;;;;;;4991407;28;20613;-84
2021/06/05 12:28:32;;;;;;;75.27;46.23;;;22.00;99.90;;;;;;4973073;28;20947;-84
2021/06/05 12:31:14;;;;;;;63.50;43.20;;;22.50;99.90;;;;;;5013065;28;20475;-84
2021/06/05 12:33:43;;;;;;;65.80;44.50;;;21.90;99.90;;;;;;4987331;28;20501;-87
2021/06/05 12:36:19;;;;;;;62.43;43.53;;;21.90;99.90;;;;;;4989597;28;20491;-84
2021/06/05 12:38:49;;;;;;;72.77;48.10;;;22.40;99.90;;;;;;5005345;28;20482;-90
2021/06/05 12:41:22;;;;;;;68.47;46.43;;;21.90;99.90;;;;;;5000514;28;20463;-88
2021/06/05 12:43:50;;;;;;;75.27;48.23;;;22.50;99.90;;;;;;4987569;28;20494;-88
2021/06/05 12:46:22;;;;;;;58.70;44.20;;;22.30;99.90;;;;;;4994257;28;20554;-90
2021/06/05 12:48:54;;;;;;;72.30;47.70;;;22.00;99.90;;;;;;5003771;28;20455;-89
2021/06/05 12:51:27;;;;;;;75.77;48.03;;;22.40;99.90;;;;;;5009525;28;20547;-87
2021/06/05 12:54:09;;;;;;;74.10;46.93;;;22.40;99.90;;;;;;5000388;28;21138;-91
2021/06/05 12:56:40;;;;;;;66.53;46.53;;;22.50;99.90;;;;;;5004452;28;20544;-88